sensor_id;sensor_type;location;lat;lon;timestamp;pressure;altitude;pressure_sealevel;temperature;humidity
23953;BME280;12163;49.316;6.092;2023-12-29T00:01:22;99379.28;;;11.17;74.09
23953;BME280;12163;49.316;6.092;2023-12-29T00:03:48;99376.06;;;11.15;74.76
23953;BME280;12163;49.316;6.092;2023-12-29T00:06:15;99378.00;;;11.15;73.89
23953;BME280;12163;49.316;6.092;2023-12-29T00:08:42;99380.19;;;11.13;74.60
23953;BME280;12163;49.316;6.092;2023-12-29T00:11:19;99379.09;;;11.14;74.48
23953;BME280;12163;49.316;6.092;2023-12-29T00:13:46;99388.47;;;11.16;74.24
23953;BME280;12163;49.316;6.092;2023-12-29T00:16:13;99377.47;;;11.13;73.68
23953;BME280;12163;49.316;6.092;2023-12-29T00:18:39;99369.44;;;11.08;74.00
23953;BME280;12163;49.316;6.092;2023-12-29T00:21:06;99360.03;;;11.05;73.42
23953;BME280;12163;49.316;6.092;2023-12-29T00:23:33;99366.81;;;11.03;73.59
23953;BME280;12163;49.316;6.092;2023-12-29T00:26:00;99373.72;;;11.09;73.61
23953;BME280;12163;49.316;6.092;2023-12-29T00:28:27;99356.44;;;11.10;73.32
23953;BME280;12163;49.316;6.092;2023-12-29T00:30:53;99364.53;;;11.10;72.87
23953;BME280;12163;49.316;6.092;2023-12-29T00:33:28;99364.03;;;11.08;72.99
23953;BME280;12163;49.316;6.092;2023-12-29T00:35:55;99368.06;;;11.10;72.25
23953;BME280;12163;49.316;6.092;2023-12-29T00:38:22;99358.13;;;11.06;72.45
23953;BME280;12163;49.316;6.092;2023-12-29T00:40:48;99368.13;;;11.05;72.53
23953;BME280;12163;49.316;6.092;2023-12-29T00:43:15;99362.50;;;11.02;72.08
23953;BME280;12163;49.316;6.092;2023-12-29T00:45:41;99357.19;;;10.97;72.85
23953;BME280;12163;49.316;6.092;2023-12-29T00:48:08;99359.16;;;10.91;72.53
23953;BME280;12163;49.316;6.092;2023-12-29T00:50:36;99350.84;;;10.88;72.46
23953;BME280;12163;49.316;6.092;2023-12-29T00:53:02;99349.81;;;10.84;72.88
23953;BME280;12163;49.316;6.092;2023-12-29T00:55:29;99354.09;;;10.85;72.59
23953;BME280;12163;49.316;6.092;2023-12-29T00:57:56;99356.09;;;10.79;72.61
23953;BME280;12163;49.316;6.092;2023-12-29T01:00:22;99358.06;;;10.74;72.83
23953;BME280;12163;49.316;6.092;2023-12-29T01:02:49;99340.84;;;10.70;72.96
23953;BME280;12163;49.316;6.092;2023-12-29T01:05:16;99342.94;;;10.73;73.00
23953;BME280;12163;49.316;6.092;2023-12-29T01:07:43;99346.81;;;10.67;73.04
23953;BME280;12163;49.316;6.092;2023-12-29T01:10:10;99347.59;;;10.67;73.23
23953;BME280;12163;49.316;6.092;2023-12-29T01:12:37;99341.84;;;10.74;72.66
23953;BME280;12163;49.316;6.092;2023-12-29T01:15:04;99345.56;;;10.78;73.28
23953;BME280;12163;49.316;6.092;2023-12-29T01:17:31;99345.50;;;10.83;72.17
23953;BME280;12163;49.316;6.092;2023-12-29T01:19:57;99339.00;;;10.84;73.16
23953;BME280;12163;49.316;6.092;2023-12-29T01:22:24;99329.75;;;10.90;72.37
23953;BME280;12163;49.316;6.092;2023-12-29T01:24:50;99329.19;;;10.93;72.28
23953;BME280;12163;49.316;6.092;2023-12-29T01:27:17;99326.38;;;10.98;72.15
23953;BME280;12163;49.316;6.092;2023-12-29T01:29:44;99323.91;;;11.01;72.70
23953;BME280;12163;49.316;6.092;2023-12-29T01:32:10;99319.03;;;11.03;72.49
23953;BME280;12163;49.316;6.092;2023-12-29T01:34:37;99320.31;;;11.06;72.66
23953;BME280;12163;49.316;6.092;2023-12-29T01:37:04;99317.63;;;11.06;72.18
23953;BME280;12163;49.316;6.092;2023-12-29T01:39:31;99319.53;;;11.05;72.44
23953;BME280;12163;49.316;6.092;2023-12-29T01:41:59;99317.63;;;11.06;72.95
23953;BME280;12163;49.316;6.092;2023-12-29T01:44:26;99324.84;;;11.10;72.35
23953;BME280;12163;49.316;6.092;2023-12-29T01:46:59;99325.94;;;11.09;73.31
23953;BME280;12163;49.316;6.092;2023-12-29T01:49:27;99327.25;;;11.12;72.82
23953;BME280;12163;49.316;6.092;2023-12-29T01:51:58;99332.59;;;11.17;72.42
23953;BME280;12163;49.316;6.092;2023-12-29T01:54:28;99316.88;;;11.19;72.27
23953;BME280;12163;49.316;6.092;2023-12-29T01:56:57;99319.00;;;11.22;72.08
23953;BME280;12163;49.316;6.092;2023-12-29T01:59:25;99311.75;;;11.17;72.53
23953;BME280;12163;49.316;6.092;2023-12-29T02:01:56;99319.06;;;11.17;72.11
23953;BME280;12163;49.316;6.092;2023-12-29T02:04:26;99328.28;;;11.16;72.62
23953;BME280;12163;49.316;6.092;2023-12-29T02:06:55;99316.97;;;11.14;72.87
23953;BME280;12163;49.316;6.092;2023-12-29T02:09:22;99317.25;;;11.12;72.38
23953;BME280;12163;49.316;6.092;2023-12-29T02:11:48;99324.03;;;11.10;72.54
23953;BME280;12163;49.316;6.092;2023-12-29T02:14:16;99317.13;;;11.04;72.22
23953;BME280;12163;49.316;6.092;2023-12-29T02:17:45;99304.19;;;11.01;72.87
23953;BME280;12163;49.316;6.092;2023-12-29T02:19:52;99310.28;;;10.93;72.81
23953;BME280;12163;49.316;6.092;2023-12-29T02:22:19;99319.75;;;10.90;72.99
23953;BME280;12163;49.316;6.092;2023-12-29T02:24:47;99319.53;;;10.87;72.70
23953;BME280;12163;49.316;6.092;2023-12-29T02:27:39;99322.81;;;10.84;72.60
23953;BME280;12163;49.316;6.092;2023-12-29T02:33:01;99329.88;;;10.80;72.71
23953;BME280;12163;49.316;6.092;2023-12-29T02:35:33;99334.13;;;10.86;73.22
23953;BME280;12163;49.316;6.092;2023-12-29T02:38:01;99321.16;;;10.88;73.25
23953;BME280;12163;49.316;6.092;2023-12-29T02:40:28;99328.06;;;10.94;72.75
23953;BME280;12163;49.316;6.092;2023-12-29T02:42:55;99322.09;;;10.97;72.66
23953;BME280;12163;49.316;6.092;2023-12-29T02:45:22;99319.38;;;10.97;72.81
23953;BME280;12163;49.316;6.092;2023-12-29T02:47:49;99319.91;;;10.99;73.13
23953;BME280;12163;49.316;6.092;2023-12-29T02:50:16;99311.78;;;10.99;72.71
23953;BME280;12163;49.316;6.092;2023-12-29T02:52:42;99311.78;;;10.99;73.12
23953;BME280;12163;49.316;6.092;2023-12-29T02:55:09;99308.59;;;10.97;73.44
23953;BME280;12163;49.316;6.092;2023-12-29T02:57:36;99308.59;;;10.97;73.21
23953;BME280;12163;49.316;6.092;2023-12-29T03:00:04;99308.59;;;10.97;73.25
23953;BME280;12163;49.316;6.092;2023-12-29T03:02:31;99316.78;;;10.92;73.63
23953;BME280;12163;49.316;6.092;2023-12-29T03:04:57;99312.97;;;10.93;73.93
23953;BME280;12163;49.316;6.092;2023-12-29T03:07:24;99304.28;;;10.96;73.87
23953;BME280;12163;49.316;6.092;2023-12-29T03:09:51;99302.59;;;11.00;74.25
23953;BME280;12163;49.316;6.092;2023-12-29T03:12:17;99292.81;;;11.04;74.21
23953;BME280;12163;49.316;6.092;2023-12-29T03:14:44;99287.63;;;11.07;74.08
23953;BME280;12163;49.316;6.092;2023-12-29T03:17:11;99297.63;;;11.07;74.30
23953;BME280;12163;49.316;6.092;2023-12-29T03:19:38;99295.81;;;11.02;74.04
23953;BME280;12163;49.316;6.092;2023-12-29T03:22:05;99301.72;;;11.04;74.20
23953;BME280;12163;49.316;6.092;2023-12-29T03:24:31;99300.81;;;11.09;74.24
23953;BME280;12163;49.316;6.092;2023-12-29T03:26:58;99297.03;;;11.10;74.37
23953;BME280;12163;49.316;6.092;2023-12-29T03:29:25;99299.44;;;11.11;74.50
23953;BME280;12163;49.316;6.092;2023-12-29T03:31:51;99302.66;;;11.13;74.00
23953;BME280;12163;49.316;6.092;2023-12-29T03:34:18;99312.06;;;11.16;74.05
23953;BME280;12163;49.316;6.092;2023-12-29T03:36:46;99316.28;;;11.22;73.61
23953;BME280;12163;49.316;6.092;2023-12-29T03:39:13;99299.50;;;11.25;73.47
23953;BME280;12163;49.316;6.092;2023-12-29T03:41:39;99295.31;;;11.32;73.13
23953;BME280;12163;49.316;6.092;2023-12-29T03:44:06;99284.50;;;11.32;72.62
23953;BME280;12163;49.316;6.092;2023-12-29T03:46:32;99285.34;;;11.33;72.18
23953;BME280;12163;49.316;6.092;2023-12-29T03:48:59;99288.03;;;11.33;72.01
23953;BME280;12163;49.316;6.092;2023-12-29T03:51:26;99278.22;;;11.37;71.72
23953;BME280;12163;49.316;6.092;2023-12-29T03:53:52;99280.13;;;11.36;71.62
23953;BME280;12163;49.316;6.092;2023-12-29T03:56:19;99276.13;;;11.34;71.79
23953;BME280;12163;49.316;6.092;2023-12-29T03:58:46;99281.53;;;11.34;71.21
23953;BME280;12163;49.316;6.092;2023-12-29T04:01:14;99266.50;;;11.41;72.04
23953;BME280;12163;49.316;6.092;2023-12-29T04:03:42;99278.13;;;11.42;71.78
23953;BME280;12163;49.316;6.092;2023-12-29T04:06:09;99267.06;;;11.43;71.28
23953;BME280;12163;49.316;6.092;2023-12-29T04:08:37;99271.03;;;11.46;71.47
23953;BME280;12163;49.316;6.092;2023-12-29T04:11:04;99270.16;;;11.50;71.32
23953;BME280;12163;49.316;6.092;2023-12-29T04:13:31;99268.75;;;11.53;72.14
23953;BME280;12163;49.316;6.092;2023-12-29T04:15:58;99270.94;;;11.51;71.18
23953;BME280;12163;49.316;6.092;2023-12-29T04:18:25;99263.34;;;11.53;71.69
23953;BME280;12163;49.316;6.092;2023-12-29T04:20:51;99270.94;;;11.51;71.62
23953;BME280;12163;49.316;6.092;2023-12-29T04:23:18;99272.75;;;11.55;71.89
23953;BME280;12163;49.316;6.092;2023-12-29T04:25:45;99266.28;;;11.56;71.91
23953;BME280;12163;49.316;6.092;2023-12-29T04:28:12;99270.44;;;11.49;71.59
23953;BME280;12163;49.316;6.092;2023-12-29T04:30:39;99258.53;;;11.50;72.00
23953;BME280;12163;49.316;6.092;2023-12-29T04:33:06;99261.72;;;11.52;71.42
23953;BME280;12163;49.316;6.092;2023-12-29T04:35:33;99257.94;;;11.53;71.51
23953;BME280;12163;49.316;6.092;2023-12-29T04:37:59;99250.34;;;11.55;71.05
23953;BME280;12163;49.316;6.092;2023-12-29T04:40:26;99247.09;;;11.58;70.90
23953;BME280;12163;49.316;6.092;2023-12-29T04:42:53;99249.97;;;11.61;70.69
23953;BME280;12163;49.316;6.092;2023-12-29T04:45:19;99251.56;;;11.62;71.26
23953;BME280;12163;49.316;6.092;2023-12-29T04:47:46;99259.69;;;11.62;70.86
23953;BME280;12163;49.316;6.092;2023-12-29T04:50:12;99244.88;;;11.60;71.03
23953;BME280;12163;49.316;6.092;2023-12-29T04:52:39;99258.78;;;11.67;71.75
23953;BME280;12163;49.316;6.092;2023-12-29T04:55:06;99255.19;;;11.71;71.45
23953;BME280;12163;49.316;6.092;2023-12-29T04:57:33;99253.38;;;11.67;71.32
23953;BME280;12163;49.316;6.092;2023-12-29T04:59:59;99250.69;;;11.67;70.92
23953;BME280;12163;49.316;6.092;2023-12-29T05:02:26;99254.38;;;11.71;71.31
23953;BME280;12163;49.316;6.092;2023-12-29T05:04:52;99250.69;;;11.67;71.74
23953;BME280;12163;49.316;6.092;2023-12-29T05:07:19;99251.38;;;11.59;71.95
23953;BME280;12163;49.316;6.092;2023-12-29T05:09:46;99247.66;;;11.55;71.91
23953;BME280;12163;49.316;6.092;2023-12-29T05:12:12;99247.94;;;11.53;72.33
23953;BME280;12163;49.316;6.092;2023-12-29T05:14:39;99252.38;;;11.63;72.53
23953;BME280;12163;49.316;6.092;2023-12-29T05:17:05;99261.00;;;11.65;71.85
23953;BME280;12163;49.316;6.092;2023-12-29T05:19:32;99252.00;;;11.69;71.70
23953;BME280;12163;49.316;6.092;2023-12-29T05:21:59;99250.59;;;11.72;71.74
23953;BME280;12163;49.316;6.092;2023-12-29T05:24:26;99254.69;;;11.69;72.10
23953;BME280;12163;49.316;6.092;2023-12-29T05:26:53;99253.38;;;11.67;71.84
23953;BME280;12163;49.316;6.092;2023-12-29T05:29:19;99247.59;;;11.60;72.37
23953;BME280;12163;49.316;6.092;2023-12-29T05:31:46;99256.38;;;11.65;72.63
23953;BME280;12163;49.316;6.092;2023-12-29T05:34:12;99253.16;;;11.63;72.50
23953;BME280;12163;49.316;6.092;2023-12-29T05:36:39;99249.59;;;11.68;72.22
23953;BME280;12163;49.316;6.092;2023-12-29T05:39:06;99252.38;;;11.63;72.05
23953;BME280;12163;49.316;6.092;2023-12-29T05:41:32;99247.59;;;11.60;72.24
23953;BME280;12163;49.316;6.092;2023-12-29T05:43:59;99255.97;;;11.58;72.58
23953;BME280;12163;49.316;6.092;2023-12-29T05:46:27;99250.78;;;11.62;71.78
23953;BME280;12163;49.316;6.092;2023-12-29T05:48:53;99253.38;;;11.67;71.74
23953;BME280;12163;49.316;6.092;2023-12-29T05:51:20;99254.00;;;11.64;72.21
23953;BME280;12163;49.316;6.092;2023-12-29T05:53:47;99261.22;;;11.81;73.61
23953;BME280;12163;49.316;6.092;2023-12-29T05:56:13;99247.38;;;12.23;73.98
23953;BME280;12163;49.316;6.092;2023-12-29T05:58:41;99249.53;;;12.48;74.13
23953;BME280;12163;49.316;6.092;2023-12-29T06:01:10;99254.88;;;12.75;71.17
23953;BME280;12163;49.316;6.092;2023-12-29T06:03:37;99251.47;;;12.70;70.14
23953;BME280;12163;49.316;6.092;2023-12-29T06:06:04;99251.28;;;12.66;68.37
23953;BME280;12163;49.316;6.092;2023-12-29T06:08:31;99253.72;;;12.54;69.22
23953;BME280;12163;49.316;6.092;2023-12-29T06:10:57;99249.66;;;12.43;70.58
23953;BME280;12163;49.316;6.092;2023-12-29T06:13:24;99236.28;;;12.47;68.76
23953;BME280;12163;49.316;6.092;2023-12-29T06:15:50;99258.06;;;12.42;69.74
23953;BME280;12163;49.316;6.092;2023-12-29T06:18:17;99249.13;;;12.41;69.88
23953;BME280;12163;49.316;6.092;2023-12-29T06:20:44;99251.72;;;12.60;69.95
23953;BME280;12163;49.316;6.092;2023-12-29T06:23:10;99257.81;;;12.65;69.49
23953;BME280;12163;49.316;6.092;2023-12-29T06:25:37;99247.00;;;12.52;68.37
23953;BME280;12163;49.316;6.092;2023-12-29T06:28:06;99249.34;;;12.45;70.96
23953;BME280;12163;49.316;6.092;2023-12-29T06:30:33;99248.31;;;12.54;70.05
23953;BME280;12163;49.316;6.092;2023-12-29T06:33:00;99252.63;;;12.55;68.57
23953;BME280;12163;49.316;6.092;2023-12-29T06:35:27;99257.84;;;12.38;69.53
23953;BME280;12163;49.316;6.092;2023-12-29T06:37:53;99249.38;;;12.31;69.44
23953;BME280;12163;49.316;6.092;2023-12-29T06:40:20;99268.53;;;12.21;70.15
23953;BME280;12163;49.316;6.092;2023-12-29T06:42:47;99256.88;;;12.34;70.08
23953;BME280;12163;49.316;6.092;2023-12-29T06:45:14;99253.16;;;12.30;69.56
23953;BME280;12163;49.316;6.092;2023-12-29T06:47:40;99261.78;;;12.32;69.98
23953;BME280;12163;49.316;6.092;2023-12-29T06:50:07;99246.53;;;12.36;68.85
23953;BME280;12163;49.316;6.092;2023-12-29T06:52:39;99244.94;;;12.35;69.04
23953;BME280;12163;49.316;6.092;2023-12-29T06:55:06;99244.72;;;12.45;70.09
23953;BME280;12163;49.316;6.092;2023-12-29T06:57:34;99251.25;;;12.44;69.03
23953;BME280;12163;49.316;6.092;2023-12-29T07:00:01;99244.91;;;12.49;69.36
23953;BME280;12163;49.316;6.092;2023-12-29T07:02:28;99239.31;;;12.45;69.27
23953;BME280;12163;49.316;6.092;2023-12-29T07:04:54;99239.50;;;12.49;70.62
23953;BME280;12163;49.316;6.092;2023-12-29T07:07:21;99248.53;;;12.44;69.63
23953;BME280;12163;49.316;6.092;2023-12-29T07:09:47;99245.03;;;12.44;71.39
23953;BME280;12163;49.316;6.092;2023-12-29T07:12:14;99249.75;;;12.38;69.52
23953;BME280;12163;49.316;6.092;2023-12-29T07:14:42;99248.97;;;12.38;69.54
23953;BME280;12163;49.316;6.092;2023-12-29T07:17:09;99243.56;;;12.24;69.54
23953;BME280;12163;49.316;6.092;2023-12-29T07:19:35;99246.59;;;12.09;69.69
23953;BME280;12163;49.316;6.092;2023-12-29T07:22:05;99259.50;;;11.99;70.12
23953;BME280;12163;49.316;6.092;2023-12-29T07:24:33;99261.31;;;11.90;69.89
23953;BME280;12163;49.316;6.092;2023-12-29T07:27:02;99264.03;;;11.90;70.91
23953;BME280;12163;49.316;6.092;2023-12-29T07:29:28;99263.72;;;11.91;70.23
23953;BME280;12163;49.316;6.092;2023-12-29T07:31:55;99263.53;;;11.88;70.44
23953;BME280;12163;49.316;6.092;2023-12-29T07:34:21;99261.13;;;11.86;70.38
23953;BME280;12163;49.316;6.092;2023-12-29T07:36:48;99264.81;;;11.90;71.43
23953;BME280;12163;49.316;6.092;2023-12-29T07:39:15;99272.72;;;11.87;71.10
23953;BME280;12163;49.316;6.092;2023-12-29T07:41:42;99253.59;;;11.83;70.42
23953;BME280;12163;49.316;6.092;2023-12-29T07:44:12;99258.81;;;11.80;71.15
23953;BME280;12163;49.316;6.092;2023-12-29T07:46:39;99264.22;;;11.80;71.04
23953;BME280;12163;49.316;6.092;2023-12-29T07:49:06;99264.53;;;11.78;71.18
23953;BME280;12163;49.316;6.092;2023-12-29T07:51:33;99262.22;;;11.72;71.38
23953;BME280;12163;49.316;6.092;2023-12-29T07:54:00;99266.19;;;11.74;71.21
23953;BME280;12163;49.316;6.092;2023-12-29T07:56:27;99275.63;;;11.77;71.19
23953;BME280;12163;49.316;6.092;2023-12-29T07:58:53;99260.22;;;11.77;71.32
23953;BME280;12163;49.316;6.092;2023-12-29T08:01:20;99268.91;;;11.74;71.72
23953;BME280;12163;49.316;6.092;2023-12-29T08:03:46;99269.34;;;11.81;71.03
23953;BME280;12163;49.316;6.092;2023-12-29T08:06:13;99277.63;;;11.85;70.77
23953;BME280;12163;49.316;6.092;2023-12-29T08:08:41;99276.03;;;11.84;71.05
23953;BME280;12163;49.316;6.092;2023-12-29T08:11:17;99274.13;;;11.84;71.24
23953;BME280;12163;49.316;6.092;2023-12-29T08:13:46;99273.31;;;11.84;71.03
23953;BME280;12163;49.316;6.092;2023-12-29T08:16:13;99279.03;;;11.82;70.87
23953;BME280;12163;49.316;6.092;2023-12-29T08:18:39;99282.84;;;11.81;70.26
23953;BME280;12163;49.316;6.092;2023-12-29T08:21:06;99280.16;;;11.81;70.95
23953;BME280;12163;49.316;6.092;2023-12-29T08:23:33;99268.13;;;11.87;70.50
23953;BME280;12163;49.316;6.092;2023-12-29T08:25:59;99284.63;;;11.86;70.89
23953;BME280;12163;49.316;6.092;2023-12-29T08:28:26;99276.84;;;11.84;70.29
23953;BME280;12163;49.316;6.092;2023-12-29T08:30:53;99275.53;;;11.82;70.15
23953;BME280;12163;49.316;6.092;2023-12-29T08:33:19;99273.81;;;11.86;70.26
23953;BME280;12163;49.316;6.092;2023-12-29T08:35:46;99281.75;;;11.82;70.76
23953;BME280;12163;49.316;6.092;2023-12-29T08:38:12;99289.34;;;11.80;70.63
23953;BME280;12163;49.316;6.092;2023-12-29T08:40:40;99279.66;;;11.79;70.52
23953;BME280;12163;49.316;6.092;2023-12-29T08:43:08;99289.84;;;11.82;70.48
23953;BME280;12163;49.316;6.092;2023-12-29T08:45:35;99284.34;;;11.87;69.94
23953;BME280;12163;49.316;6.092;2023-12-29T08:48:02;99288.25;;;11.81;70.69
23953;BME280;12163;49.316;6.092;2023-12-29T08:50:30;99282.41;;;11.74;71.07
23953;BME280;12163;49.316;6.092;2023-12-29T08:52:56;99288.03;;;11.78;70.72
23953;BME280;12163;49.316;6.092;2023-12-29T08:55:23;99279.53;;;11.84;70.66
23953;BME280;12163;49.316;6.092;2023-12-29T08:57:49;99285.13;;;11.74;70.72
23953;BME280;12163;49.316;6.092;2023-12-29T09:00:16;99279.81;;;11.70;71.08
23953;BME280;12163;49.316;6.092;2023-12-29T09:02:43;99278.03;;;11.78;71.11
23953;BME280;12163;49.316;6.092;2023-12-29T09:05:11;99284.44;;;11.82;70.81
23953;BME280;12163;49.316;6.092;2023-12-29T09:07:38;99283.94;;;11.80;69.89
23953;BME280;12163;49.316;6.092;2023-12-29T09:10:05;99270.94;;;11.82;70.52
23953;BME280;12163;49.316;6.092;2023-12-29T09:12:35;99266.72;;;11.77;70.19
23953;BME280;12163;49.316;6.092;2023-12-29T09:15:02;99267.63;;;11.72;70.44
23953;BME280;12163;49.316;6.092;2023-12-29T09:17:29;99273.19;;;11.75;70.07
23953;BME280;12163;49.316;6.092;2023-12-29T09:19:56;99288.44;;;11.72;70.01
23953;BME280;12163;49.316;6.092;2023-12-29T09:22:35;99276.81;;;11.71;70.05
23953;BME280;12163;49.316;6.092;2023-12-29T09:25:02;99277.00;;;11.74;70.49
23953;BME280;12163;49.316;6.092;2023-12-29T09:27:28;99278.13;;;11.87;70.21
23953;BME280;12163;49.316;6.092;2023-12-29T09:29:55;99289.16;;;11.90;69.92
23953;BME280;12163;49.316;6.092;2023-12-29T09:32:22;99293.66;;;11.95;70.01
23953;BME280;12163;49.316;6.092;2023-12-29T09:34:48;99300.47;;;11.92;70.04
23953;BME280;12163;49.316;6.092;2023-12-29T09:37:15;99295.97;;;11.88;70.02
23953;BME280;12163;49.316;6.092;2023-12-29T09:39:42;99306.84;;;11.83;70.06
23953;BME280;12163;49.316;6.092;2023-12-29T09:42:12;99298.47;;;11.84;70.58
23953;BME280;12163;49.316;6.092;2023-12-29T09:44:41;99299.84;;;11.82;70.37
23953;BME280;12163;49.316;6.092;2023-12-29T09:47:09;99295.75;;;11.84;70.62
23953;BME280;12163;49.316;6.092;2023-12-29T09:49:38;99297.97;;;11.82;71.09
23953;BME280;12163;49.316;6.092;2023-12-29T09:52:09;99306.84;;;11.83;70.41
23953;BME280;12163;49.316;6.092;2023-12-29T09:54:38;99296.25;;;11.86;70.02
23953;BME280;12163;49.316;6.092;2023-12-29T09:57:05;99311.88;;;11.89;70.40
23953;BME280;12163;49.316;6.092;2023-12-29T09:59:35;99323.69;;;11.93;71.12
23953;BME280;12163;49.316;6.092;2023-12-29T10:02:04;99316.69;;;11.92;70.29
23953;BME280;12163;49.316;6.092;2023-12-29T10:04:31;99312.97;;;11.88;69.76
23953;BME280;12163;49.316;6.092;2023-12-29T10:07:02;99318.69;;;11.87;70.17
23953;BME280;12163;49.316;6.092;2023-12-29T10:09:31;99318.88;;;11.90;70.49
23953;BME280;12163;49.316;6.092;2023-12-29T10:12:02;99321.91;;;11.89;70.21
23953;BME280;12163;49.316;6.092;2023-12-29T10:17:52;99336.53;;;11.88;71.69
23953;BME280;12163;49.316;6.092;2023-12-29T10:20:24;99331.13;;;11.88;71.83
23953;BME280;12163;49.316;6.092;2023-12-29T10:23:01;99331.41;;;11.86;71.97
23953;BME280;12163;49.316;6.092;2023-12-29T10:25:28;99319.88;;;11.81;71.95
23953;BME280;12163;49.316;6.092;2023-12-29T10:27:55;99322.91;;;11.79;72.89
23953;BME280;12163;49.316;6.092;2023-12-29T10:30:23;99322.41;;;11.77;73.26
23953;BME280;12163;49.316;6.092;2023-12-29T10:32:59;99309.38;;;11.66;73.36
23953;BME280;12163;49.316;6.092;2023-12-29T10:35:27;99311.84;;;11.63;74.75
23953;BME280;12163;49.316;6.092;2023-12-29T10:37:54;99316.66;;;11.66;74.35
23953;BME280;12163;49.316;6.092;2023-12-29T10:40:21;99304.47;;;11.68;74.41
23953;BME280;12163;49.316;6.092;2023-12-29T10:42:55;99299.34;;;11.67;74.47
23953;BME280;12163;49.316;6.092;2023-12-29T10:45:22;99303.13;;;11.66;75.19
23953;BME280;12163;49.316;6.092;2023-12-29T10:47:51;99298.84;;;11.65;75.00
23953;BME280;12163;49.316;6.092;2023-12-29T10:50:18;99289.84;;;11.69;75.07
23953;BME280;12163;49.316;6.092;2023-12-29T10:52:44;99299.72;;;11.73;75.19
23953;BME280;12163;49.316;6.092;2023-12-29T10:55:13;99293.84;;;11.72;74.95
23953;BME280;12163;49.316;6.092;2023-12-29T10:57:40;99297.84;;;11.74;74.84
23953;BME280;12163;49.316;6.092;2023-12-29T11:00:07;99301.88;;;11.77;75.41
23953;BME280;12163;49.316;6.092;2023-12-29T11:02:35;99297.03;;;11.73;75.36
23953;BME280;12163;49.316;6.092;2023-12-29T11:07:38;99294.94;;;11.71;75.89
23953;BME280;12163;49.316;6.092;2023-12-29T11:10:09;99300.84;;;11.73;75.93
23953;BME280;12163;49.316;6.092;2023-12-29T11:12:37;99289.63;;;11.66;76.40
23953;BME280;12163;49.316;6.092;2023-12-29T11:15:06;99282.03;;;11.68;76.23
23953;BME280;12163;49.316;6.092;2023-12-29T11:17:34;99281.41;;;11.71;76.72
23953;BME280;12163;49.316;6.092;2023-12-29T11:20:03;99278.22;;;11.69;76.15
23953;BME280;12163;49.316;6.092;2023-12-29T11:22:31;99272.41;;;11.62;75.75
23953;BME280;12163;49.316;6.092;2023-12-29T11:24:59;99266.41;;;11.65;75.78
23953;BME280;12163;49.316;6.092;2023-12-29T11:27:28;99276.63;;;11.68;75.61
23953;BME280;12163;49.316;6.092;2023-12-29T11:29:58;99266.41;;;11.65;75.43
23953;BME280;12163;49.316;6.092;2023-12-29T11:32:42;99276.41;;;11.64;74.95
23953;BME280;12163;49.316;6.092;2023-12-29T11:40:56;99265.63;;;11.77;75.96
23953;BME280;12163;49.316;6.092;2023-12-29T11:43:26;99277.34;;;11.86;75.35
23953;BME280;12163;49.316;6.092;2023-12-29T11:45:53;99274.84;;;11.90;75.28
23953;BME280;12163;49.316;6.092;2023-12-29T11:48:57;99278.22;;;11.95;74.77
23953;BME280;12163;49.316;6.092;2023-12-29T11:51:35;99268.22;;;11.96;74.64
23953;BME280;12163;49.316;6.092;2023-12-29T11:54:03;99263.22;;;11.89;75.12
23953;BME280;12163;49.316;6.092;2023-12-29T11:56:36;99260.13;;;11.96;74.64
23953;BME280;12163;49.316;6.092;2023-12-29T11:59:15;99255.41;;;12.01;74.75
23953;BME280;12163;49.316;6.092;2023-12-29T12:01:42;99245.78;;;12.09;74.78
23953;BME280;12163;49.316;6.092;2023-12-29T12:04:35;99240.38;;;12.22;74.36
23953;BME280;12163;49.316;6.092;2023-12-29T12:07:04;99245.16;;;12.25;74.13
23953;BME280;12163;49.316;6.092;2023-12-29T12:09:31;99245.16;;;12.25;73.02
23953;BME280;12163;49.316;6.092;2023-12-29T12:12:04;99228.53;;;12.32;72.61
23953;BME280;12163;49.316;6.092;2023-12-29T12:14:51;99229.59;;;12.44;72.91
23953;BME280;12163;49.316;6.092;2023-12-29T12:17:44;99240.09;;;12.46;71.95
23953;BME280;12163;49.316;6.092;2023-12-29T12:20:13;99225.88;;;12.40;72.10
23953;BME280;12163;49.316;6.092;2023-12-29T12:22:40;99224.28;;;12.39;71.43
23953;BME280;12163;49.316;6.092;2023-12-29T12:25:07;99224.91;;;12.36;71.47
23953;BME280;12163;49.316;6.092;2023-12-29T12:27:37;99222.69;;;12.38;71.61
23953;BME280;12163;49.316;6.092;2023-12-29T12:30:04;99225.38;;;12.38;71.42
23953;BME280;12163;49.316;6.092;2023-12-29T12:32:32;99217.09;;;12.35;71.11
23953;BME280;12163;49.316;6.092;2023-12-29T12:34:58;99224.91;;;12.36;71.68
23953;BME280;12163;49.316;6.092;2023-12-29T12:37:27;99219.88;;;12.43;71.41
23953;BME280;12163;49.316;6.092;2023-12-29T12:39:53;99220.59;;;12.35;70.69
23953;BME280;12163;49.316;6.092;2023-12-29T12:42:22;99223.41;;;12.30;71.08
23953;BME280;12163;49.316;6.092;2023-12-29T12:45:10;99211.00;;;12.29;71.11
23953;BME280;12163;49.316;6.092;2023-12-29T12:47:44;99206.06;;;12.31;71.30
23953;BME280;12163;49.316;6.092;2023-12-29T12:50:12;99218.50;;;12.32;71.38
23953;BME280;12163;49.316;6.092;2023-12-29T12:52:39;99213.09;;;12.32;71.75
23953;BME280;12163;49.316;6.092;2023-12-29T12:55:07;99206.06;;;12.31;71.51
23953;BME280;12163;49.316;6.092;2023-12-29T12:57:35;99203.50;;;12.26;71.61
23953;BME280;12163;49.316;6.092;2023-12-29T13:00:02;99202.66;;;12.26;71.31
23953;BME280;12163;49.316;6.092;2023-12-29T13:02:30;99206.69;;;12.28;71.04
23953;BME280;12163;49.316;6.092;2023-12-29T13:04:57;99213.63;;;12.21;71.40
23953;BME280;12163;49.316;6.092;2023-12-29T13:07:24;99211.09;;;12.24;71.72
23953;BME280;12163;49.316;6.092;2023-12-29T13:09:52;99202.50;;;12.22;71.88
23953;BME280;12163;49.316;6.092;2023-12-29T13:12:19;99210.63;;;12.22;71.27
23953;BME280;12163;49.316;6.092;2023-12-29T13:14:46;99206.88;;;12.18;70.92
23953;BME280;12163;49.316;6.092;2023-12-29T13:17:13;99197.50;;;12.16;71.22
23953;BME280;12163;49.316;6.092;2023-12-29T13:19:41;99196.19;;;12.13;71.20